Disclaimer

Please do not use the information listed here in-flight or in-navigation, as they are not provided to us by the airports but are provided by volunteers, so they might be outdated.

Search


Regions


Airport information page

Radio informations:
Ground (GND) - 121.9 MHz

Airport informations:
Latitude: 27° 02' 20.50" N
Longitude: 049° 24' 18.30" E
Elevation: 26 feet - 8 meters
Operating hours: From sunrise to sunset (SR-SS)
Operating agency: Military
Timezone: UTC+3
Fuel: Jet A1+, Jet A1 with icing inhibitor.

Runway information:
17/35 - 13124 x 148 feet< - >4000 x 45 meters

Recent METARs:
OEJB 180700Z 30013KT 4000 HZ NSC 22/16 Q1021 NOSIG
OEJB 180700Z 30013KT 4000 HZ NSC 22/16 Q1021 NOSIG
OEJB 180800Z 31014KT 5000 NSC 23/16 Q1020 NOSIG

Airport on the map: